sensor_id;sensor_type;location;lat;lon;timestamp;temperature;humidity
62476;DHT22;50739;45.670;11.936;2022-09-02T00:01:47;21.10;77.16
62476;DHT22;50739;45.670;11.936;2022-09-02T00:06:50;20.99;77.43
62476;DHT22;50739;45.670;11.936;2022-09-02T00:11:53;20.98;77.90
62476;DHT22;50739;45.670;11.936;2022-09-02T00:16:56;20.93;78.00
62476;DHT22;50739;45.670;11.936;2022-09-02T00:22:01;20.83;78.31
62476;DHT22;50739;45.670;11.936;2022-09-02T00:27:03;20.79;78.16
62476;DHT22;50739;45.670;11.936;2022-09-02T00:32:06;20.82;77.98
62476;DHT22;50739;45.670;11.936;2022-09-02T00:37:08;20.83;77.83
62476;DHT22;50739;45.670;11.936;2022-09-02T00:42:10;20.82;77.42
62476;DHT22;50739;45.670;11.936;2022-09-02T00:47:13;20.85;77.34
62476;DHT22;50739;45.670;11.936;2022-09-02T00:52:18;20.78;77.35
62476;DHT22;50739;45.670;11.936;2022-09-02T00:57:23;20.73;77.82
62476;DHT22;50739;45.670;11.936;2022-09-02T01:02:27;20.61;78.73
62476;DHT22;50739;45.670;11.936;2022-09-02T01:07:32;20.58;79.38
62476;DHT22;50739;45.670;11.936;2022-09-02T01:12:36;20.51;79.98
62476;DHT22;50739;45.670;11.936;2022-09-02T01:17:42;20.48;79.55
62476;DHT22;50739;45.670;11.936;2022-09-02T01:22:45;20.54;79.74
62476;DHT22;50739;45.670;11.936;2022-09-02T01:27:47;20.48;79.74
62476;DHT22;50739;45.670;11.936;2022-09-02T01:32:49;20.40;80.13
62476;DHT22;50739;45.670;11.936;2022-09-02T01:37:55;20.37;79.73
62476;DHT22;50739;45.670;11.936;2022-09-02T01:42:59;20.21;80.44
62476;DHT22;50739;45.670;11.936;2022-09-02T01:48:02;20.44;79.43
62476;DHT22;50739;45.670;11.936;2022-09-02T01:53:05;20.42;79.27
62476;DHT22;50739;45.670;11.936;2022-09-02T01:58:09;20.31;79.31
62476;DHT22;50739;45.670;11.936;2022-09-02T02:03:11;20.38;79.28
62476;DHT22;50739;45.670;11.936;2022-09-02T02:08:14;20.31;79.44
62476;DHT22;50739;45.670;11.936;2022-09-02T02:13:16;20.34;79.56
62476;DHT22;50739;45.670;11.936;2022-09-02T02:18:18;20.41;79.31
62476;DHT22;50739;45.670;11.936;2022-09-02T02:23:21;20.37;79.76
62476;DHT22;50739;45.670;11.936;2022-09-02T02:28:24;20.24;79.93
62476;DHT22;50739;45.670;11.936;2022-09-02T02:33:27;20.30;79.22
62476;DHT22;50739;45.670;11.936;2022-09-02T02:38:31;20.18;79.96
62476;DHT22;50739;45.670;11.936;2022-09-02T02:43:33;20.30;79.39
62476;DHT22;50739;45.670;11.936;2022-09-02T02:48:35;20.23;79.96
62476;DHT22;50739;45.670;11.936;2022-09-02T02:53:39;20.14;80.35
62476;DHT22;50739;45.670;11.936;2022-09-02T02:58:41;20.06;80.09
62476;DHT22;50739;45.670;11.936;2022-09-02T03:03:43;19.90;80.36
62476;DHT22;50739;45.670;11.936;2022-09-02T03:08:46;19.97;79.61
62476;DHT22;50739;45.670;11.936;2022-09-02T03:13:48;20.13;78.74
62476;DHT22;50739;45.670;11.936;2022-09-02T03:18:50;19.92;78.71
62476;DHT22;50739;45.670;11.936;2022-09-02T03:23:54;19.89;77.99
62476;DHT22;50739;45.670;11.936;2022-09-02T03:28:56;19.92;76.89
62476;DHT22;50739;45.670;11.936;2022-09-02T03:33:58;19.80;76.87
62476;DHT22;50739;45.670;11.936;2022-09-02T03:39:03;19.83;76.44
62476;DHT22;50739;45.670;11.936;2022-09-02T03:44:05;19.80;76.51
62476;DHT22;50739;45.670;11.936;2022-09-02T03:49:08;19.66;76.86
62476;DHT22;50739;45.670;11.936;2022-09-02T03:54:11;19.72;76.48
62476;DHT22;50739;45.670;11.936;2022-09-02T03:59:14;19.72;76.16
62476;DHT22;50739;45.670;11.936;2022-09-02T04:04:17;19.63;76.53
62476;DHT22;50739;45.670;11.936;2022-09-02T04:09:21;19.63;76.38
62476;DHT22;50739;45.670;11.936;2022-09-02T04:14:22;19.51;77.12
62476;DHT22;50739;45.670;11.936;2022-09-02T04:19:25;19.42;77.51
62476;DHT22;50739;45.670;11.936;2022-09-02T04:24:28;19.38;77.99
62476;DHT22;50739;45.670;11.936;2022-09-02T04:29:30;19.51;77.31
62476;DHT22;50739;45.670;11.936;2022-09-02T04:34:32;19.41;77.75
62476;DHT22;50739;45.670;11.936;2022-09-02T04:39:35;19.34;78.27
62476;DHT22;50739;45.670;11.936;2022-09-02T04:44:37;19.42;77.74
62476;DHT22;50739;45.670;11.936;2022-09-02T04:49:39;19.42;77.57
62476;DHT22;50739;45.670;11.936;2022-09-02T04:54:42;19.38;77.90
62476;DHT22;50739;45.670;11.936;2022-09-02T04:59:44;19.44;77.32
62476;DHT22;50739;45.670;11.936;2022-09-02T05:04:46;19.41;76.82
62476;DHT22;50739;45.670;11.936;2022-09-02T05:09:55;19.41;76.28
62476;DHT22;50739;45.670;11.936;2022-09-02T05:14:57;19.47;76.44
62476;DHT22;50739;45.670;11.936;2022-09-02T05:20:01;19.57;75.60
62476;DHT22;50739;45.670;11.936;2022-09-02T05:25:05;19.48;75.53
62476;DHT22;50739;45.670;11.936;2022-09-02T05:30:09;19.48;75.50
62476;DHT22;50739;45.670;11.936;2022-09-02T05:35:11;19.63;74.91
62476;DHT22;50739;45.670;11.936;2022-09-02T05:40:15;19.70;74.50
62476;DHT22;50739;45.670;11.936;2022-09-02T05:45:17;19.70;74.53
62476;DHT22;50739;45.670;11.936;2022-09-02T05:50:20;19.73;74.26
62476;DHT22;50739;45.670;11.936;2022-09-02T05:55:25;19.79;73.95
62476;DHT22;50739;45.670;11.936;2022-09-02T06:00:27;19.85;74.03
62476;DHT22;50739;45.670;11.936;2022-09-02T06:05:29;19.96;73.78
62476;DHT22;50739;45.670;11.936;2022-09-02T06:10:33;19.94;73.73
62476;DHT22;50739;45.670;11.936;2022-09-02T06:15:40;20.13;72.72
62476;DHT22;50739;45.670;11.936;2022-09-02T06:20:44;20.37;71.04
62476;DHT22;50739;45.670;11.936;2022-09-02T06:25:49;20.56;70.56
62476;DHT22;50739;45.670;11.936;2022-09-02T06:30:51;20.65;69.99
62476;DHT22;50739;45.670;11.936;2022-09-02T06:35:52;20.76;69.25
62476;DHT22;50739;45.670;11.936;2022-09-02T06:40:56;20.92;68.35
62476;DHT22;50739;45.670;11.936;2022-09-02T06:45:58;21.02;68.84
62476;DHT22;50739;45.670;11.936;2022-09-02T06:51:00;21.14;64.49
62476;DHT22;50739;45.670;11.936;2022-09-02T06:56:05;21.22;63.55
62476;DHT22;50739;45.670;11.936;2022-09-02T07:01:07;21.43;62.73
62476;DHT22;50739;45.670;11.936;2022-09-02T07:06:10;21.57;62.00
62476;DHT22;50739;45.670;11.936;2022-09-02T07:11:20;21.71;62.26
62476;DHT22;50739;45.670;11.936;2022-09-02T07:16:22;21.89;59.79
62476;DHT22;50739;45.670;11.936;2022-09-02T07:21:24;21.92;61.54
62476;DHT22;50739;45.670;11.936;2022-09-02T07:26:28;22.08;58.46
62476;DHT22;50739;45.670;11.936;2022-09-02T07:31:29;22.10;58.90
62476;DHT22;50739;45.670;11.936;2022-09-02T07:36:32;22.32;59.16
62476;DHT22;50739;45.670;11.936;2022-09-02T07:41:36;22.37;59.55
62476;DHT22;50739;45.670;11.936;2022-09-02T07:46:39;22.43;58.69
62476;DHT22;50739;45.670;11.936;2022-09-02T07:51:43;22.46;58.60
62476;DHT22;50739;45.670;11.936;2022-09-02T07:56:50;22.41;58.26
62476;DHT22;50739;45.670;11.936;2022-09-02T08:01:52;22.41;57.01
62476;DHT22;50739;45.670;11.936;2022-09-02T08:06:55;22.51;56.72
62476;DHT22;50739;45.670;11.936;2022-09-02T08:11:58;22.65;56.15
62476;DHT22;50739;45.670;11.936;2022-09-02T08:17:00;22.84;55.94
62476;DHT22;50739;45.670;11.936;2022-09-02T08:22:02;23.05;55.52
62476;DHT22;50739;45.670;11.936;2022-09-02T08:27:07;23.19;55.03
62476;DHT22;50739;45.670;11.936;2022-09-02T08:32:09;23.40;54.50
62476;DHT22;50739;45.670;11.936;2022-09-02T08:37:10;23.54;54.33
62476;DHT22;50739;45.670;11.936;2022-09-02T08:42:20;23.73;52.66
62476;DHT22;50739;45.670;11.936;2022-09-02T08:47:25;23.97;51.58
62476;DHT22;50739;45.670;11.936;2022-09-02T08:52:35;24.01;52.09
62476;DHT22;50739;45.670;11.936;2022-09-02T08:57:39;23.93;50.70
62476;DHT22;50739;45.670;11.936;2022-09-02T09:02:49;24.12;51.46
62476;DHT22;50739;45.670;11.936;2022-09-02T09:08:03;24.40;50.52
62476;DHT22;50739;45.670;11.936;2022-09-02T09:13:17;24.49;49.22
62476;DHT22;50739;45.670;11.936;2022-09-02T09:18:30;24.49;48.66
62476;DHT22;50739;45.670;11.936;2022-09-02T09:23:37;24.56;48.95
62476;DHT22;50739;45.670;11.936;2022-09-02T09:28:42;24.57;48.90
62476;DHT22;50739;45.670;11.936;2022-09-02T09:33:56;24.64;47.92
62476;DHT22;50739;45.670;11.936;2022-09-02T09:38:58;24.73;45.10
62476;DHT22;50739;45.670;11.936;2022-09-02T09:44:01;24.91;46.04
62476;DHT22;50739;45.670;11.936;2022-09-02T09:49:03;25.07;45.68
62476;DHT22;50739;45.670;11.936;2022-09-02T09:54:13;25.10;45.46
62476;DHT22;50739;45.670;11.936;2022-09-02T09:59:36;25.10;45.90
62476;DHT22;50739;45.670;11.936;2022-09-02T10:04:38;25.14;45.56
62476;DHT22;50739;45.670;11.936;2022-09-02T10:09:40;25.21;46.61
62476;DHT22;50739;45.670;11.936;2022-09-02T10:14:45;25.28;46.15
62476;DHT22;50739;45.670;11.936;2022-09-02T10:19:53;25.47;48.08
62476;DHT22;50739;45.670;11.936;2022-09-02T10:25:05;25.36;46.96
62476;DHT22;50739;45.670;11.936;2022-09-02T10:30:16;25.58;47.76
62476;DHT22;50739;45.670;11.936;2022-09-02T10:35:24;25.63;46.06
62476;DHT22;50739;45.670;11.936;2022-09-02T10:40:32;24.91;47.71
62476;DHT22;50739;45.670;11.936;2022-09-02T10:45:44;25.32;46.04
62476;DHT22;50739;45.670;11.936;2022-09-02T10:50:49;25.79;47.39
62476;DHT22;50739;45.670;11.936;2022-09-02T10:55:56;25.15;45.37
62476;DHT22;50739;45.670;11.936;2022-09-02T11:01:00;25.42;48.31
62476;DHT22;50739;45.670;11.936;2022-09-02T11:06:08;26.05;47.60
62476;DHT22;50739;45.670;11.936;2022-09-02T11:11:15;26.42;45.95
62476;DHT22;50739;45.670;11.936;2022-09-02T11:16:25;26.46;44.60
62476;DHT22;50739;45.670;11.936;2022-09-02T11:21:36;26.08;44.90
62476;DHT22;50739;45.670;11.936;2022-09-02T11:26:51;26.29;44.65
62476;DHT22;50739;45.670;11.936;2022-09-02T11:32:01;26.41;45.25
62476;DHT22;50739;45.670;11.936;2022-09-02T11:37:08;26.42;44.84
62476;DHT22;50739;45.670;11.936;2022-09-02T11:42:26;26.94;45.31
62476;DHT22;50739;45.670;11.936;2022-09-02T11:47:50;26.99;44.83
62476;DHT22;50739;45.670;11.936;2022-09-02T11:53:03;26.48;45.34
62476;DHT22;50739;45.670;11.936;2022-09-02T11:58:07;26.69;45.95
62476;DHT22;50739;45.670;11.936;2022-09-02T12:03:15;27.14;43.98
62476;DHT22;50739;45.670;11.936;2022-09-02T12:20:07;27.08;43.77
62476;DHT22;50739;45.670;11.936;2022-09-02T12:25:35;27.57;43.94
62476;DHT22;50739;45.670;11.936;2022-09-02T12:31:13;27.81;43.43
62476;DHT22;50739;45.670;11.936;2022-09-02T12:36:46;27.70;42.68
62476;DHT22;50739;45.670;11.936;2022-09-02T12:41:57;28.02;42.51
62476;DHT22;50739;45.670;11.936;2022-09-02T12:47:06;27.99;42.35
62476;DHT22;50739;45.670;11.936;2022-09-02T12:52:12;28.64;42.95
62476;DHT22;50739;45.670;11.936;2022-09-02T12:57:38;28.03;41.47
62476;DHT22;50739;45.670;11.936;2022-09-02T13:02:50;28.57;42.01
62476;DHT22;50739;45.670;11.936;2022-09-02T13:08:10;28.24;41.30
62476;DHT22;50739;45.670;11.936;2022-09-02T13:13:45;29.38;41.55
62476;DHT22;50739;45.670;11.936;2022-09-02T13:19:21;29.61;38.29
62476;DHT22;50739;45.670;11.936;2022-09-02T13:24:58;30.59;38.24
62476;DHT22;50739;45.670;11.936;2022-09-02T13:30:09;31.14;38.69
62476;DHT22;50739;45.670;11.936;2022-09-02T13:35:18;33.02;34.76
62476;DHT22;50739;45.670;11.936;2022-09-02T13:40:25;33.49;34.51
62476;DHT22;50739;45.670;11.936;2022-09-02T13:45:28;32.94;35.03
62476;DHT22;50739;45.670;11.936;2022-09-02T13:50:32;33.79;33.09
62476;DHT22;50739;45.670;11.936;2022-09-02T13:55:36;33.28;34.29
62476;DHT22;50739;45.670;11.936;2022-09-02T14:00:40;31.69;36.16
62476;DHT22;50739;45.670;11.936;2022-09-02T14:05:44;31.60;35.84
62476;DHT22;50739;45.670;11.936;2022-09-02T14:10:48;32.35;35.64
62476;DHT22;50739;45.670;11.936;2022-09-02T14:15:52;32.62;35.38
62476;DHT22;50739;45.670;11.936;2022-09-02T14:20:57;32.24;35.99
62476;DHT22;50739;45.670;11.936;2022-09-02T14:26:01;32.58;35.15
62476;DHT22;50739;45.670;11.936;2022-09-02T14:31:07;32.58;34.72
62476;DHT22;50739;45.670;11.936;2022-09-02T14:36:19;33.10;35.19
62476;DHT22;50739;45.670;11.936;2022-09-02T14:41:33;32.93;34.49
62476;DHT22;50739;45.670;11.936;2022-09-02T14:46:37;33.08;35.62
62476;DHT22;50739;45.670;11.936;2022-09-02T14:51:45;33.34;33.83
62476;DHT22;50739;45.670;11.936;2022-09-02T14:56:51;33.66;34.86
62476;DHT22;50739;45.670;11.936;2022-09-02T15:01:54;33.78;34.08
62476;DHT22;50739;45.670;11.936;2022-09-02T15:06:57;33.44;33.69
62476;DHT22;50739;45.670;11.936;2022-09-02T15:12:02;33.54;33.77
62476;DHT22;50739;45.670;11.936;2022-09-02T15:17:07;33.65;34.07
62476;DHT22;50739;45.670;11.936;2022-09-02T15:22:10;33.45;33.82
62476;DHT22;50739;45.670;11.936;2022-09-02T15:27:14;33.32;34.38
62476;DHT22;50739;45.670;11.936;2022-09-02T15:32:16;33.11;35.28
62476;DHT22;50739;45.670;11.936;2022-09-02T15:37:17;33.40;34.83
62476;DHT22;50739;45.670;11.936;2022-09-02T15:42:21;32.55;35.29
62476;DHT22;50739;45.670;11.936;2022-09-02T15:47:23;31.29;37.35
62476;DHT22;50739;45.670;11.936;2022-09-02T15:52:25;31.22;37.99
62476;DHT22;50739;45.670;11.936;2022-09-02T15:57:28;31.93;36.89
62476;DHT22;50739;45.670;11.936;2022-09-02T16:02:30;31.77;36.56
62476;DHT22;50739;45.670;11.936;2022-09-02T16:07:32;31.36;37.31
62476;DHT22;50739;45.670;11.936;2022-09-02T16:12:35;30.96;38.03
62476;DHT22;50739;45.670;11.936;2022-09-02T16:17:37;30.84;38.66
62476;DHT22;50739;45.670;11.936;2022-09-02T16:22:41;30.78;38.72
62476;DHT22;50739;45.670;11.936;2022-09-02T16:27:44;30.71;38.80
62476;DHT22;50739;45.670;11.936;2022-09-02T16:32:56;29.65;40.03
62476;DHT22;50739;45.670;11.936;2022-09-02T16:37:58;29.00;41.32
62476;DHT22;50739;45.670;11.936;2022-09-02T16:43:03;28.82;42.09
62476;DHT22;50739;45.670;11.936;2022-09-02T16:48:05;28.43;42.89
62476;DHT22;50739;45.670;11.936;2022-09-02T16:53:07;28.41;42.83
62476;DHT22;50739;45.670;11.936;2022-09-02T16:58:10;28.14;42.95
62476;DHT22;50739;45.670;11.936;2022-09-02T17:03:13;27.76;44.25
62476;DHT22;50739;45.670;11.936;2022-09-02T17:08:15;27.40;45.22
62476;DHT22;50739;45.670;11.936;2022-09-02T17:13:18;27.31;46.14
62476;DHT22;50739;45.670;11.936;2022-09-02T17:18:20;27.21;46.49
62476;DHT22;50739;45.670;11.936;2022-09-02T17:23:22;27.20;45.85
62476;DHT22;50739;45.670;11.936;2022-09-02T17:28:25;26.99;46.75
62476;DHT22;50739;45.670;11.936;2022-09-02T17:33:27;26.84;48.18
62476;DHT22;50739;45.670;11.936;2022-09-02T17:38:29;26.83;48.05
62476;DHT22;50739;45.670;11.936;2022-09-02T17:43:33;26.60;49.19
62476;DHT22;50739;45.670;11.936;2022-09-02T17:48:37;26.38;50.42
62476;DHT22;50739;45.670;11.936;2022-09-02T17:53:39;26.44;49.96
62476;DHT22;50739;45.670;11.936;2022-09-02T17:58:49;26.17;50.81
62476;DHT22;50739;45.670;11.936;2022-09-02T18:04:01;26.18;51.36
62476;DHT22;50739;45.670;11.936;2022-09-02T18:09:06;26.08;51.82
62476;DHT22;50739;45.670;11.936;2022-09-02T18:14:15;25.90;52.19
62476;DHT22;50739;45.670;11.936;2022-09-02T18:19:33;25.86;53.20
62476;DHT22;50739;45.670;11.936;2022-09-02T18:24:50;25.79;52.72
62476;DHT22;50739;45.670;11.936;2022-09-02T18:30:03;25.63;53.12
62476;DHT22;50739;45.670;11.936;2022-09-02T18:35:19;25.36;53.44
62476;DHT22;50739;45.670;11.936;2022-09-02T18:40:26;25.07;54.17
62476;DHT22;50739;45.670;11.936;2022-09-02T18:45:33;24.91;54.89
62476;DHT22;50739;45.670;11.936;2022-09-02T18:50:39;24.80;55.41
62476;DHT22;50739;45.670;11.936;2022-09-02T18:55:41;24.83;55.38
62476;DHT22;50739;45.670;11.936;2022-09-02T19:00:50;24.80;55.34
62476;DHT22;50739;45.670;11.936;2022-09-02T19:05:54;24.55;56.92
62476;DHT22;50739;45.670;11.936;2022-09-02T19:11:00;24.55;56.88
62476;DHT22;50739;45.670;11.936;2022-09-02T19:16:04;24.36;58.44
62476;DHT22;50739;45.670;11.936;2022-09-02T19:21:06;24.53;57.42
62476;DHT22;50739;45.670;11.936;2022-09-02T19:26:08;24.44;56.88
62476;DHT22;50739;45.670;11.936;2022-09-02T19:31:14;24.29;58.07
62476;DHT22;50739;45.670;11.936;2022-09-02T19:36:19;23.84;60.08
62476;DHT22;50739;45.670;11.936;2022-09-02T19:41:21;23.82;60.17
62476;DHT22;50739;45.670;11.936;2022-09-02T19:46:28;23.91;60.36
62476;DHT22;50739;45.670;11.936;2022-09-02T19:51:30;23.74;61.54
62476;DHT22;50739;45.670;11.936;2022-09-02T19:56:32;23.98;61.44
62476;DHT22;50739;45.670;11.936;2022-09-02T20:01:35;23.73;62.28
62476;DHT22;50739;45.670;11.936;2022-09-02T20:06:37;23.74;62.16
62476;DHT22;50739;45.670;11.936;2022-09-02T20:11:39;23.60;62.84
62476;DHT22;50739;45.670;11.936;2022-09-02T20:16:43;23.54;63.47
62476;DHT22;50739;45.670;11.936;2022-09-02T20:21:45;23.49;64.32
62476;DHT22;50739;45.670;11.936;2022-09-02T20:26:54;23.42;64.16
62476;DHT22;50739;45.670;11.936;2022-09-02T20:32:07;23.49;63.98
62476;DHT22;50739;45.670;11.936;2022-09-02T20:37:20;23.34;63.54
62476;DHT22;50739;45.670;11.936;2022-09-02T20:42:40;23.53;62.76
62476;DHT22;50739;45.670;11.936;2022-09-02T20:47:56;23.27;63.46
62476;DHT22;50739;45.670;11.936;2022-09-02T20:53:23;23.13;63.77
62476;DHT22;50739;45.670;11.936;2022-09-02T20:58:33;23.15;64.76
62476;DHT22;50739;45.670;11.936;2022-09-02T21:03:47;23.08;64.71
62476;DHT22;50739;45.670;11.936;2022-09-02T21:09:05;23.02;65.10
62476;DHT22;50739;45.670;11.936;2022-09-02T21:14:12;22.95;64.43
62476;DHT22;50739;45.670;11.936;2022-09-02T21:19:26;22.85;66.09
62476;DHT22;50739;45.670;11.936;2022-09-02T21:24:33;22.60;66.18
62476;DHT22;50739;45.670;11.936;2022-09-02T21:29:41;22.46;66.81
62476;DHT22;50739;45.670;11.936;2022-09-02T21:34:51;22.41;66.49
62476;DHT22;50739;45.670;11.936;2022-09-02T21:39:56;22.48;66.78
62476;DHT22;50739;45.670;11.936;2022-09-02T21:45:10;22.41;67.64
62476;DHT22;50739;45.670;11.936;2022-09-02T21:50:21;22.36;68.08
62476;DHT22;50739;45.670;11.936;2022-09-02T21:55:41;22.54;67.60
62476;DHT22;50739;45.670;11.936;2022-09-02T22:00:48;22.51;67.81
62476;DHT22;50739;45.670;11.936;2022-09-02T22:05:58;22.33;68.76
62476;DHT22;50739;45.670;11.936;2022-09-02T22:11:08;22.32;68.76
62476;DHT22;50739;45.670;11.936;2022-09-02T22:16:23;22.16;68.47
62476;DHT22;50739;45.670;11.936;2022-09-02T22:21:36;22.21;68.05
62476;DHT22;50739;45.670;11.936;2022-09-02T22:26:50;22.23;68.51
62476;DHT22;50739;45.670;11.936;2022-09-02T22:31:55;22.05;69.33
62476;DHT22;50739;45.670;11.936;2022-09-02T22:37:02;21.98;69.78
62476;DHT22;50739;45.670;11.936;2022-09-02T22:42:12;21.98;69.04
62476;DHT22;50739;45.670;11.936;2022-09-02T22:47:21;22.00;69.33
62476;DHT22;50739;45.670;11.936;2022-09-02T22:52:42;21.95;69.21
62476;DHT22;50739;45.670;11.936;2022-09-02T22:57:55;22.05;69.30
62476;DHT22;50739;45.670;11.936;2022-09-02T23:03:12;22.09;68.33
62476;DHT22;50739;45.670;11.936;2022-09-02T23:08:17;22.10;68.74
62476;DHT22;50739;45.670;11.936;2022-09-02T23:13:30;21.95;68.93
62476;DHT22;50739;45.670;11.936;2022-09-02T23:18:42;22.06;68.39
62476;DHT22;50739;45.670;11.936;2022-09-02T23:23:54;22.09;68.66
62476;DHT22;50739;45.670;11.936;2022-09-02T23:29:04;22.06;68.26
62476;DHT22;50739;45.670;11.936;2022-09-02T23:34:14;22.03;68.87
62476;DHT22;50739;45.670;11.936;2022-09-02T23:39:43;22.08;68.38
62476;DHT22;50739;45.670;11.936;2022-09-02T23:44:48;22.05;67.93
62476;DHT22;50739;45.670;11.936;2022-09-02T23:49:56;21.95;68.35
62476;DHT22;50739;45.670;11.936;2022-09-02T23:55:07;21.99;68.18
